createdAt,value
2022-11-12T00:01:18.729Z,99617.00
2022-11-12T00:03:47.894Z,99621.00
2022-11-12T00:06:15.732Z,99624.00
2022-11-12T00:08:43.538Z,99621.00
2022-11-12T00:11:11.321Z,99630.00
2022-11-12T00:13:39.085Z,99615.00
2022-11-12T00:16:07.962Z,99623.00
2022-11-12T00:18:35.774Z,99617.00
2022-11-12T00:21:05.154Z,99615.00
2022-11-12T00:23:33.022Z,99620.00
2022-11-12T00:26:01.342Z,99626.00
2022-11-12T00:28:33.462Z,99625.00
2022-11-12T00:31:10.523Z,99626.00
2022-11-12T00:33:42.478Z,99623.00
2022-11-12T00:36:12.522Z,99621.00
2022-11-12T00:38:40.415Z,99621.00
2022-11-12T00:41:08.265Z,99610.00
2022-11-12T00:43:36.068Z,99608.00
2022-11-12T00:46:03.846Z,99615.00
2022-11-12T00:48:31.673Z,99609.00
2022-11-12T00:51:04.823Z,99614.00
2022-11-12T00:53:34.210Z,99607.00
2022-11-12T00:56:03.777Z,99596.00
2022-11-12T00:58:32.366Z,99599.00
2022-11-12T01:01:08.005Z,99600.00
2022-11-12T01:03:36.151Z,99599.00
2022-11-12T01:06:05.776Z,99596.00
2022-11-12T01:08:35.749Z,99601.00
2022-11-12T01:11:09.839Z,99593.00
2022-11-12T01:13:43.851Z,99589.00
2022-11-12T01:16:15.240Z,99590.00
2022-11-12T01:18:43.213Z,99580.00
2022-11-12T01:21:11.506Z,99585.00
2022-11-12T01:23:43.411Z,99582.00
2022-11-12T01:26:14.148Z,99583.00
2022-11-12T01:28:43.370Z,99579.00
2022-11-12T01:31:14.981Z,99576.00
2022-11-12T01:33:44.119Z,99581.00
2022-11-12T01:36:13.738Z,99575.00
2022-11-12T01:38:45.097Z,99574.00
2022-11-12T01:41:16.947Z,99571.00
2022-11-12T01:43:45.311Z,99568.00
2022-11-12T01:46:21.202Z,99552.00
2022-11-12T01:48:53.964Z,99565.00
2022-11-12T01:51:24.414Z,99569.00
2022-11-12T01:53:59.847Z,99570.00
2022-11-12T01:56:32.255Z,99571.00
2022-11-12T01:59:06.791Z,99564.00
2022-11-12T02:01:36.130Z,99570.00
2022-11-12T02:04:04.222Z,99560.00
2022-11-12T02:06:33.960Z,99561.00
2022-11-12T02:09:03.177Z,99570.00
2022-11-12T02:11:30.977Z,99553.00
2022-11-12T02:13:58.205Z,99561.00
2022-11-12T02:16:29.471Z,99562.00
2022-11-12T02:18:57.334Z,99563.00
2022-11-12T02:21:28.310Z,99557.00
2022-11-12T02:24:00.276Z,99551.00
2022-11-12T02:26:35.298Z,99562.00
2022-11-12T02:29:04.265Z,99554.00
2022-11-12T02:31:32.324Z,99560.00
2022-11-12T02:34:00.249Z,99550.00
2022-11-12T02:36:30.334Z,99561.00
2022-11-12T02:38:58.712Z,99565.00
2022-11-12T02:41:26.769Z,99568.00
2022-11-12T02:43:54.539Z,99570.00
2022-11-12T02:46:22.390Z,99567.00
2022-11-12T02:48:50.238Z,99560.00
2022-11-12T02:51:18.085Z,99554.00
2022-11-12T02:53:47.356Z,99562.00
2022-11-12T02:56:15.203Z,99555.00
2022-11-12T02:58:43.002Z,99571.00
2022-11-12T03:01:10.839Z,99569.00
2022-11-12T03:03:38.613Z,99574.00
2022-11-12T03:06:07.658Z,99568.00
2022-11-12T03:08:35.556Z,99570.00
2022-11-12T03:11:10.314Z,99569.00
2022-11-12T03:13:38.819Z,99577.00
2022-11-12T03:16:07.446Z,99574.00
2022-11-12T03:18:35.548Z,99568.00
2022-11-12T03:21:03.386Z,99570.00
2022-11-12T03:23:31.925Z,99576.00
2022-11-12T03:26:00.095Z,99583.00
2022-11-12T03:28:29.477Z,99566.00
2022-11-12T03:30:59.933Z,99572.00
2022-11-12T03:33:27.867Z,99568.00
2022-11-12T03:35:56.519Z,99576.00
2022-11-12T03:38:25.303Z,99576.00
2022-11-12T03:40:53.380Z,99569.00
2022-11-12T03:43:21.235Z,99578.00
2022-11-12T03:45:50.416Z,99574.00
2022-11-12T03:48:18.306Z,99577.00
2022-11-12T03:50:46.109Z,99571.00
2022-11-12T03:53:13.941Z,99574.00
2022-11-12T03:55:42.282Z,99572.00
2022-11-12T03:58:10.215Z,99576.00
2022-11-12T04:00:38.071Z,99577.00
2022-11-12T04:03:07.273Z,99564.00
2022-11-12T04:05:52.716Z,99573.00
2022-11-12T04:08:39.163Z,99560.00
2022-11-12T04:11:10.370Z,99569.00
2022-11-12T04:13:38.910Z,99562.00
2022-11-12T04:16:27.061Z,99565.00
2022-11-12T04:19:16.278Z,99572.00
2022-11-12T04:21:52.404Z,99569.00
2022-11-12T04:24:43.066Z,99575.00
2022-11-12T04:27:15.090Z,99565.00
2022-11-12T04:30:01.195Z,99561.00
2022-11-12T04:32:30.486Z,99572.00
2022-11-12T04:35:00.505Z,99579.00
2022-11-12T04:37:44.248Z,99572.00
2022-11-12T04:40:31.597Z,99576.00
2022-11-12T04:43:17.362Z,99581.00
2022-11-12T04:45:48.532Z,99571.00
2022-11-12T04:48:16.626Z,99574.00
2022-11-12T04:50:49.011Z,99575.00
2022-11-12T04:53:17.344Z,99577.00
2022-11-12T04:55:45.187Z,99585.00
2022-11-12T04:58:12.993Z,99589.00
2022-11-12T05:00:40.791Z,99584.00
2022-11-12T05:03:08.911Z,99580.00
2022-11-12T05:05:36.754Z,99580.00
2022-11-12T05:08:05.968Z,99582.00
2022-11-12T05:10:33.933Z,99585.00
2022-11-12T05:13:02.041Z,99591.00
2022-11-12T05:15:29.958Z,99594.00
2022-11-12T05:17:58.223Z,99600.00
2022-11-12T05:20:26.084Z,99594.00
2022-11-12T05:23:06.122Z,99584.00
2022-11-12T05:25:36.916Z,99592.00
2022-11-12T05:28:06.834Z,99581.00
2022-11-12T05:30:35.804Z,99587.00
2022-11-12T05:33:03.654Z,99589.00
2022-11-12T05:35:31.474Z,99591.00
2022-11-12T05:37:59.252Z,99590.00
2022-11-12T05:40:27.083Z,99583.00
2022-11-12T05:42:56.193Z,99581.00
2022-11-12T05:45:24.064Z,99582.00
2022-11-12T05:47:51.848Z,99584.00
2022-11-12T05:50:19.633Z,99592.00
2022-11-12T05:52:47.479Z,99591.00
2022-11-12T05:55:15.501Z,99590.00
2022-11-12T05:57:43.312Z,99594.00
2022-11-12T06:00:14.017Z,99593.00
2022-11-12T06:02:43.051Z,99599.00
2022-11-12T06:05:11.478Z,99597.00
2022-11-12T06:07:39.582Z,99597.00
2022-11-12T06:10:09.029Z,99592.00
2022-11-12T06:12:36.837Z,99600.00
2022-11-12T06:15:05.225Z,99600.00
2022-11-12T06:17:34.394Z,99602.00
2022-11-12T06:20:02.243Z,99606.00
2022-11-12T06:22:29.986Z,99605.00
2022-11-12T06:24:57.742Z,99612.00
2022-11-12T06:27:25.588Z,99606.00
2022-11-12T06:29:54.033Z,99610.00
2022-11-12T06:32:22.014Z,99606.00
2022-11-12T06:34:53.611Z,99609.00
2022-11-12T06:37:22.080Z,99611.00
2022-11-12T06:39:50.143Z,99592.00
2022-11-12T06:42:18.692Z,99606.00
2022-11-12T06:44:46.584Z,99600.00
2022-11-12T06:47:14.401Z,99609.00
2022-11-12T06:49:42.248Z,99611.00
2022-11-12T06:52:16.384Z,99615.00
2022-11-12T06:54:44.889Z,99617.00
2022-11-12T06:57:12.889Z,99619.00
2022-11-12T06:59:40.734Z,99626.00
2022-11-12T07:02:08.677Z,99625.00
2022-11-12T07:04:36.627Z,99622.00
2022-11-12T07:07:09.342Z,99623.00
2022-11-12T07:09:39.758Z,99631.00
2022-11-12T07:12:08.362Z,99623.00
2022-11-12T07:14:36.327Z,99621.00
2022-11-12T07:17:04.219Z,99622.00
2022-11-12T07:19:32.115Z,99625.00
2022-11-12T07:21:59.925Z,99626.00
2022-11-12T07:24:27.715Z,99629.00
2022-11-12T07:26:56.866Z,99628.00
2022-11-12T07:29:42.659Z,99622.00
2022-11-12T07:32:10.849Z,99625.00
2022-11-12T07:34:38.702Z,99617.00
2022-11-12T07:37:06.540Z,99611.00
2022-11-12T07:39:34.378Z,99622.00
2022-11-12T07:42:03.540Z,99616.00
2022-11-12T07:44:31.515Z,99620.00
2022-11-12T07:46:59.354Z,99618.00
2022-11-12T07:49:27.191Z,99620.00
2022-11-12T07:51:54.958Z,99624.00
2022-11-12T07:54:22.766Z,99621.00
2022-11-12T07:56:50.623Z,99622.00
2022-11-12T07:59:19.797Z,99612.00
2022-11-12T08:01:47.653Z,99622.00
2022-11-12T08:04:15.619Z,99610.00
2022-11-12T08:06:49.546Z,99603.00
2022-11-12T08:09:19.373Z,99628.00
2022-11-12T08:11:53.288Z,99605.00
2022-11-12T08:14:23.089Z,99608.00
2022-11-12T08:16:51.411Z,99615.00
2022-11-12T08:19:19.287Z,99621.00
2022-11-12T08:21:47.109Z,99627.00
2022-11-12T08:24:15.008Z,99624.00
2022-11-12T08:26:42.802Z,99616.00
2022-11-12T08:29:11.193Z,99627.00
2022-11-12T08:31:40.306Z,99628.00
2022-11-12T08:34:16.100Z,99631.00
2022-11-12T08:36:46.409Z,99628.00
2022-11-12T08:39:14.198Z,99629.00
2022-11-12T08:41:41.971Z,99627.00
2022-11-12T08:44:09.799Z,99628.00
2022-11-12T08:46:37.581Z,99629.00
2022-11-12T08:49:06.759Z,99631.00
2022-11-12T08:51:34.582Z,99632.00
2022-11-12T08:54:02.524Z,99628.00
2022-11-12T08:56:30.368Z,99619.00
2022-11-12T08:58:58.159Z,99618.00
2022-11-12T09:01:26.310Z,99616.00
2022-11-12T09:03:54.167Z,99613.00
2022-11-12T09:06:23.483Z,99620.00
2022-11-12T09:08:51.395Z,99615.00
2022-11-12T09:11:19.410Z,99613.00
2022-11-12T09:13:47.248Z,99615.00
2022-11-12T09:16:15.275Z,99617.00
2022-11-12T09:18:43.036Z,99612.00
2022-11-12T09:21:13.267Z,99607.00
2022-11-12T09:23:42.389Z,99611.00
2022-11-12T09:26:10.294Z,99609.00
2022-11-12T09:28:38.061Z,99621.00
2022-11-12T09:31:09.634Z,99609.00
2022-11-12T09:33:37.422Z,99609.00
2022-11-12T09:36:06.496Z,99612.00
2022-11-12T09:38:34.512Z,99612.00
2022-11-12T09:41:26.641Z,99620.00
2022-11-12T09:44:00.603Z,99612.00
2022-11-12T09:46:37.557Z,99614.00
2022-11-12T09:49:16.178Z,99616.00
2022-11-12T09:51:50.629Z,99617.00
2022-11-12T09:54:26.042Z,99614.00
2022-11-12T09:56:55.986Z,99612.00
2022-11-12T09:59:27.992Z,99615.00
2022-11-12T10:02:11.475Z,99617.00
2022-11-12T10:04:59.884Z,99606.00
2022-11-12T10:07:46.339Z,99602.00
2022-11-12T10:10:22.244Z,99605.00
2022-11-12T10:13:17.047Z,99605.00
2022-11-12T10:16:26.031Z,99593.00
2022-11-12T10:19:18.557Z,99576.00
2022-11-12T10:21:57.661Z,99597.00
2022-11-12T10:24:32.491Z,99589.00
2022-11-12T10:27:01.079Z,99588.00
2022-11-12T10:29:40.430Z,99580.00
2022-11-12T10:32:15.722Z,99576.00
2022-11-12T10:34:44.075Z,99576.00
2022-11-12T10:37:20.000Z,99574.00
2022-11-12T10:39:48.209Z,99572.00
2022-11-12T10:42:19.806Z,99573.00
2022-11-12T10:44:49.479Z,99572.00
2022-11-12T10:47:24.258Z,99570.00
2022-11-12T10:50:20.553Z,99567.00
2022-11-12T10:52:57.866Z,99564.00
2022-11-12T10:55:28.281Z,99563.00
2022-11-12T10:58:20.849Z,99557.00
2022-11-12T11:01:01.048Z,99554.00
2022-11-12T11:03:34.600Z,99552.00
2022-11-12T11:06:05.344Z,99539.00
2022-11-12T11:08:38.244Z,99550.00
2022-11-12T11:11:22.186Z,99546.00
2022-11-12T11:13:55.423Z,99542.00
2022-11-12T11:16:27.817Z,99542.00
2022-11-12T11:19:00.587Z,99535.00
2022-11-12T11:21:58.414Z,99529.00
2022-11-12T11:24:40.777Z,99529.00
2022-11-12T11:27:26.236Z,99524.00
2022-11-12T11:30:11.466Z,99526.00
2022-11-12T11:33:40.065Z,99533.00
2022-11-12T11:36:23.087Z,99525.00
2022-11-12T11:39:02.790Z,99516.00
2022-11-12T11:41:51.944Z,99518.00
2022-11-12T11:44:33.430Z,99518.00
2022-11-12T11:47:21.069Z,99516.00
2022-11-12T11:50:09.473Z,99509.00
2022-11-12T11:52:47.009Z,99507.00
2022-11-12T11:55:33.960Z,99504.00
2022-11-12T11:58:19.691Z,99506.00
2022-11-12T12:00:56.305Z,99512.00
2022-11-12T12:03:33.022Z,99499.00
2022-11-12T12:06:20.773Z,99497.00
2022-11-12T12:09:24.630Z,99494.00
2022-11-12T12:12:02.060Z,99488.00
2022-11-12T12:14:47.013Z,99486.00
2022-11-12T12:17:33.454Z,99485.00
2022-11-12T12:20:18.183Z,99474.00
2022-11-12T12:22:53.125Z,99481.00
2022-11-12T12:25:28.591Z,99483.00
2022-11-12T12:28:06.865Z,99480.00
2022-11-12T12:30:38.564Z,99469.00
2022-11-12T12:33:24.106Z,99467.00
2022-11-12T12:35:59.028Z,99463.00
2022-11-12T12:38:39.886Z,99462.00
2022-11-12T12:41:17.981Z,99459.00
2022-11-12T12:43:52.114Z,99459.00
2022-11-12T12:46:24.787Z,99455.00
2022-11-12T12:48:55.255Z,99450.00
2022-11-12T12:51:24.004Z,99447.00
2022-11-12T12:53:53.147Z,99437.00
2022-11-12T12:56:48.187Z,99448.00
2022-11-12T12:59:23.833Z,99444.00
2022-11-12T13:02:01.095Z,99448.00
2022-11-12T13:04:55.783Z,99443.00
2022-11-12T13:07:42.447Z,99433.00
2022-11-12T13:10:47.937Z,99434.00
2022-11-12T13:13:33.024Z,99432.00
2022-11-12T13:16:03.184Z,99424.00
2022-11-12T13:19:00.175Z,99430.00
2022-11-12T13:21:29.301Z,99434.00
2022-11-12T13:24:07.898Z,99435.00
2022-11-12T13:26:55.893Z,99440.00
2022-11-12T13:29:44.049Z,99440.00
2022-11-12T13:32:35.669Z,99434.00
2022-11-12T13:35:29.245Z,99431.00
2022-11-12T13:38:01.788Z,99429.00
2022-11-12T13:40:44.385Z,99431.00
2022-11-12T13:43:25.576Z,99433.00
2022-11-12T13:46:00.373Z,99430.00
2022-11-12T13:48:33.287Z,99433.00
2022-11-12T13:51:05.793Z,99439.00
2022-11-12T13:53:34.900Z,99428.00
2022-11-12T13:56:02.832Z,99429.00
2022-11-12T13:58:34.744Z,99430.00
2022-11-12T14:01:05.486Z,99439.00
2022-11-12T14:03:43.003Z,99442.00
2022-11-12T14:06:19.150Z,99434.00
2022-11-12T14:09:26.681Z,99436.00
2022-11-12T14:12:12.688Z,99428.00
2022-11-12T14:15:02.130Z,99439.00
2022-11-12T14:17:45.111Z,99431.00
2022-11-12T14:20:27.556Z,99417.00
2022-11-12T14:22:55.954Z,99427.00
2022-11-12T14:25:27.214Z,99421.00
2022-11-12T14:27:56.344Z,99421.00
2022-11-12T14:30:29.557Z,99415.00
2022-11-12T14:33:02.364Z,99417.00
2022-11-12T14:35:35.691Z,99410.00
2022-11-12T14:38:15.329Z,99417.00
2022-11-12T14:40:52.222Z,99417.00
2022-11-12T14:43:34.215Z,99410.00
2022-11-12T14:46:06.694Z,99404.00
2022-11-12T14:48:45.939Z,99408.00
2022-11-12T14:51:16.168Z,99400.00
2022-11-12T14:53:50.466Z,99398.00
2022-11-12T14:56:35.188Z,99406.00
2022-11-12T14:59:04.901Z,99400.00
2022-11-12T15:04:25.875Z,99403.00
2022-11-12T15:06:56.265Z,99399.00
2022-11-12T15:09:36.657Z,99392.00
2022-11-12T15:12:07.503Z,99388.00
2022-11-12T15:14:36.170Z,99383.00
2022-11-12T15:17:06.220Z,99389.00
2022-11-12T15:19:36.092Z,99384.00
2022-11-12T15:22:05.375Z,99373.00
2022-11-12T15:24:35.642Z,99375.00
2022-11-12T15:27:35.997Z,99378.00
2022-11-12T15:30:17.457Z,99375.00
2022-11-12T15:32:47.882Z,99377.00
2022-11-12T15:35:36.964Z,99372.00
2022-11-12T15:38:12.453Z,99370.00
2022-11-12T15:40:46.163Z,99374.00
2022-11-12T15:43:17.753Z,99369.00
2022-11-12T15:45:50.451Z,99376.00
2022-11-12T15:48:20.038Z,99372.00
2022-11-12T15:50:48.413Z,99364.00
2022-11-12T15:53:17.601Z,99354.00
2022-11-12T15:55:48.036Z,99361.00
2022-11-12T15:58:20.579Z,99350.00
2022-11-12T16:00:48.631Z,99360.00
2022-11-12T16:03:21.180Z,99353.00
2022-11-12T16:05:49.464Z,99355.00
2022-11-12T16:08:17.352Z,99353.00
2022-11-12T16:10:47.956Z,99348.00
2022-11-12T16:13:21.732Z,99352.00
2022-11-12T16:15:51.782Z,99346.00
2022-11-12T16:18:20.883Z,99347.00
2022-11-12T16:20:49.891Z,99342.00
2022-11-12T16:23:17.727Z,99344.00
2022-11-12T16:25:46.310Z,99347.00
2022-11-12T16:28:17.076Z,99347.00
2022-11-12T16:30:46.558Z,99352.00
2022-11-12T16:33:14.848Z,99339.00
2022-11-12T16:35:44.315Z,99343.00
2022-11-12T16:38:16.575Z,99353.00
2022-11-12T16:40:45.784Z,99337.00
2022-11-12T16:43:13.700Z,99338.00
2022-11-12T16:45:44.299Z,99342.00
2022-11-12T16:48:18.195Z,99338.00
2022-11-12T16:50:47.918Z,99334.00
2022-11-12T16:53:15.706Z,99342.00
2022-11-12T16:55:43.650Z,99335.00
2022-11-12T16:58:14.868Z,99338.00
2022-11-12T17:00:46.898Z,99340.00
2022-11-12T17:03:14.943Z,99338.00
2022-11-12T17:05:43.145Z,99333.00
2022-11-12T17:08:14.504Z,99335.00
2022-11-12T17:10:42.308Z,99330.00
2022-11-12T17:13:13.093Z,99326.00
2022-11-12T17:15:40.831Z,99317.00
2022-11-12T17:18:09.714Z,99321.00
2022-11-12T17:20:37.693Z,99320.00
2022-11-12T17:23:05.535Z,99319.00
2022-11-12T17:25:34.657Z,99316.00
2022-11-12T17:28:02.526Z,99319.00
2022-11-12T17:30:30.435Z,99317.00
2022-11-12T17:33:00.278Z,99311.00
2022-11-12T17:35:28.097Z,99299.00
2022-11-12T17:37:55.855Z,99305.00
2022-11-12T17:40:23.620Z,99299.00
2022-11-12T17:42:53.810Z,99293.00
2022-11-12T17:45:21.629Z,99305.00
2022-11-12T17:47:49.373Z,99309.00
2022-11-12T17:50:17.455Z,99306.00
2022-11-12T17:52:45.235Z,99316.00
2022-11-12T17:55:13.001Z,99317.00
2022-11-12T17:57:40.737Z,99315.00
2022-11-12T18:00:14.213Z,99314.00
2022-11-12T18:02:41.969Z,99311.00
2022-11-12T18:05:10.255Z,99311.00
2022-11-12T18:07:37.995Z,99309.00
2022-11-12T18:10:06.645Z,99306.00
2022-11-12T18:12:34.455Z,99306.00
2022-11-12T18:15:02.219Z,99312.00
2022-11-12T18:17:31.418Z,99317.00
2022-11-12T18:19:59.254Z,99323.00
2022-11-12T18:22:27.180Z,99308.00
2022-11-12T18:24:54.991Z,99310.00
2022-11-12T18:27:22.784Z,99306.00
2022-11-12T18:29:50.585Z,99308.00
2022-11-12T18:32:18.449Z,99310.00
2022-11-12T18:34:47.569Z,99293.00
2022-11-12T18:37:15.558Z,99298.00
2022-11-12T18:39:43.486Z,99293.00
2022-11-12T18:42:11.286Z,99291.00
2022-11-12T18:44:39.201Z,99287.00
2022-11-12T18:47:07.011Z,99289.00
2022-11-12T18:49:34.860Z,99283.00
2022-11-12T18:52:04.013Z,99275.00
2022-11-12T18:54:31.870Z,99278.00
2022-11-12T18:56:59.639Z,99274.00
2022-11-12T18:59:30.620Z,99272.00
2022-11-12T19:01:58.682Z,99278.00
2022-11-12T19:04:26.621Z,99285.00
2022-11-12T19:06:54.465Z,99274.00
2022-11-12T19:09:23.704Z,99273.00
2022-11-12T19:11:51.486Z,99274.00
2022-11-12T19:14:19.238Z,99283.00
2022-11-12T19:16:47.056Z,99279.00
2022-11-12T19:19:15.319Z,99273.00
2022-11-12T19:21:43.348Z,99271.00
2022-11-12T19:24:11.168Z,99273.00
2022-11-12T19:26:40.285Z,99281.00
2022-11-12T19:29:08.225Z,99275.00
2022-11-12T19:31:36.088Z,99267.00
2022-11-12T19:34:03.916Z,99266.00
2022-11-12T19:36:31.724Z,99271.00
2022-11-12T19:39:02.603Z,99268.00
2022-11-12T19:41:30.398Z,99257.00
2022-11-12T19:43:59.500Z,99258.00
2022-11-12T19:46:27.368Z,99256.00
2022-11-12T19:48:55.374Z,99258.00
2022-11-12T19:51:24.333Z,99264.00
2022-11-12T19:53:52.205Z,99257.00
2022-11-12T19:56:21.650Z,99257.00
2022-11-12T19:58:53.585Z,99263.00
2022-11-12T20:01:23.031Z,99265.00
2022-11-12T20:03:50.859Z,99259.00
2022-11-12T20:06:22.432Z,99262.00
2022-11-12T20:08:50.216Z,99250.00
2022-11-12T20:11:18.843Z,99249.00
2022-11-12T20:13:47.062Z,99242.00
2022-11-12T20:16:24.739Z,99246.00
2022-11-12T20:18:55.755Z,99243.00
2022-11-12T20:21:23.795Z,99238.00
2022-11-12T20:23:51.620Z,99243.00
2022-11-12T20:26:19.485Z,99239.00
2022-11-12T20:28:47.273Z,99236.00
2022-11-12T20:31:19.917Z,99235.00
2022-11-12T20:33:49.825Z,99233.00
2022-11-12T20:36:21.644Z,99249.00
2022-11-12T20:38:50.489Z,99248.00
2022-11-12T20:41:21.463Z,99247.00
2022-11-12T20:43:53.180Z,99247.00
2022-11-12T20:46:21.433Z,99239.00
2022-11-12T20:48:49.379Z,99243.00
2022-11-12T20:51:25.327Z,99243.00
2022-11-12T20:53:59.287Z,99235.00
2022-11-12T20:56:29.978Z,99243.00
2022-11-12T20:58:58.177Z,99242.00
2022-11-12T21:01:27.908Z,99243.00
2022-11-12T21:03:57.177Z,99246.00
2022-11-12T21:06:29.574Z,99239.00
2022-11-12T21:09:00.407Z,99239.00
2022-11-12T21:11:28.222Z,99241.00
2022-11-12T21:13:56.050Z,99241.00
2022-11-12T21:16:24.042Z,99247.00
2022-11-12T21:18:51.850Z,99237.00
2022-11-12T21:21:21.283Z,99248.00
2022-11-12T21:23:51.301Z,99248.00
2022-11-12T21:26:21.567Z,99247.00
2022-11-12T21:28:52.597Z,99239.00
2022-11-12T21:31:23.932Z,99234.00
2022-11-12T21:33:53.131Z,99229.00
2022-11-12T21:36:21.443Z,99224.00
2022-11-12T21:38:50.890Z,99232.00
2022-11-12T21:41:21.328Z,99237.00
2022-11-12T21:43:50.256Z,99224.00
2022-11-12T21:46:22.038Z,99222.00
2022-11-12T21:48:54.895Z,99222.00
2022-11-12T21:51:26.177Z,99218.00
2022-11-12T21:53:57.847Z,99221.00
2022-11-12T21:56:26.696Z,99213.00
2022-11-12T21:58:59.235Z,99209.00
2022-11-12T22:01:30.586Z,99213.00
2022-11-12T22:04:00.052Z,99216.00
2022-11-12T22:06:30.628Z,99215.00
2022-11-12T22:08:59.947Z,99213.00
2022-11-12T22:11:28.274Z,99221.00
2022-11-12T22:13:56.136Z,99212.00
2022-11-12T22:16:26.885Z,99210.00
2022-11-12T22:18:57.144Z,99197.00
2022-11-12T22:21:27.510Z,99203.00
2022-11-12T22:23:57.104Z,99194.00
2022-11-12T22:26:29.068Z,99195.00
2022-11-12T22:28:59.784Z,99191.00
2022-11-12T22:31:30.696Z,99187.00
2022-11-12T22:34:00.898Z,99190.00
2022-11-12T22:36:32.880Z,99192.00
2022-11-12T22:39:00.752Z,99183.00
2022-11-12T22:41:32.581Z,99181.00
2022-11-12T22:44:02.522Z,99186.00
2022-11-12T22:46:34.734Z,99178.00
2022-11-12T22:49:03.383Z,99175.00
2022-11-12T22:51:34.072Z,99171.00
2022-11-12T22:54:04.684Z,99174.00
2022-11-12T22:56:34.281Z,99157.00
2022-11-12T22:59:04.734Z,99175.00
2022-11-12T23:01:35.073Z,99172.00
2022-11-12T23:04:05.964Z,99170.00
2022-11-12T23:06:34.397Z,99170.00
2022-11-12T23:09:02.791Z,99170.00
2022-11-12T23:11:31.687Z,99158.00
2022-11-12T23:14:00.876Z,99157.00
2022-11-12T23:16:31.557Z,99161.00
2022-11-12T23:19:00.372Z,99160.00
2022-11-12T23:21:31.017Z,99160.00
2022-11-12T23:24:00.467Z,99156.00
2022-11-12T23:26:32.112Z,99159.00
2022-11-12T23:29:02.493Z,99162.00
2022-11-12T23:31:32.692Z,99161.00
2022-11-12T23:34:01.384Z,99162.00
2022-11-12T23:36:31.350Z,99160.00
2022-11-12T23:38:59.805Z,99158.00
2022-11-12T23:41:28.478Z,99153.00
2022-11-12T23:43:58.498Z,99150.00
2022-11-12T23:46:27.778Z,99146.00
2022-11-12T23:48:55.535Z,99141.00
2022-11-12T23:51:24.146Z,99153.00
2022-11-12T23:53:51.925Z,99144.00
2022-11-12T23:56:20.609Z,99137.00
2022-11-12T23:58:48.944Z,99124.00
